Jasper, Ohio
Current Conditions -  °F | °C
As of 9:34 AM on Friday 28 Nov 2014 (Local Time) from KRZT Reporting Station
Overcast Overcast  
Wind Chill: 28°   Ceiling: 10000
Heat Index: 28°   Visibility: 10mi
Dew Point: 18°   Wind: 0mph
Humidity: 64%   Direction: NA
Pressure: 30.4"   Gusts: NA
Location:  39.05°N, 83.06°W
Report Text: KRZT 281434Z AUTO 00000KT 10SM OVC100 M02/M08 A3040 RMK AO2
Loading
Personal Weather Stations






























Interactive Weather Map New forecast layout! Learn more

10-Day Weather Forecast

Advertisements
Track Severe Weather on mobile